createdAt,value
2023-05-06T00:02:07.490Z,75.66
2023-05-06T00:04:46.970Z,75.70
2023-05-06T00:07:26.377Z,75.74
2023-05-06T00:10:05.726Z,75.61
2023-05-06T00:12:50.095Z,75.58
2023-05-06T00:15:30.873Z,75.72
2023-05-06T00:18:11.621Z,75.63
2023-05-06T00:20:50.994Z,75.67
2023-05-06T00:23:30.287Z,75.50
2023-05-06T00:26:09.607Z,75.28
2023-05-06T00:28:53.956Z,75.06
2023-05-06T00:31:33.260Z,75.31
2023-05-06T00:34:12.591Z,75.35
2023-05-06T00:36:51.855Z,75.49
2023-05-06T00:39:33.001Z,75.40
2023-05-06T00:42:12.343Z,75.48
2023-05-06T00:44:56.777Z,75.56
2023-05-06T00:47:36.157Z,75.77
2023-05-06T00:50:16.364Z,75.89
2023-05-06T00:52:56.597Z,75.74
2023-05-06T00:55:36.147Z,75.75
2023-05-06T00:58:16.264Z,75.45
2023-05-06T01:01:02.952Z,74.71
2023-05-06T01:03:42.315Z,75.26
2023-05-06T01:06:31.734Z,75.37
2023-05-06T01:09:25.937Z,75.64
2023-05-06T01:12:17.765Z,75.64
2023-05-06T01:15:09.836Z,76.09
2023-05-06T01:17:58.762Z,75.84
2023-05-06T01:20:40.164Z,75.75
2023-05-06T01:23:25.483Z,75.89
2023-05-06T01:26:04.737Z,76.39
2023-05-06T01:28:44.054Z,76.60
2023-05-06T01:31:32.579Z,76.60
2023-05-06T01:34:21.679Z,76.97
2023-05-06T01:37:12.255Z,76.42
2023-05-06T01:39:59.425Z,76.65
2023-05-06T01:42:41.675Z,76.63
2023-05-06T01:45:23.352Z,76.67
2023-05-06T01:48:04.321Z,76.72
2023-05-06T01:50:44.925Z,76.61
2023-05-06T01:53:24.254Z,76.32
2023-05-06T01:56:08.655Z,76.42
2023-05-06T01:58:48.012Z,76.32
2023-05-06T02:01:27.391Z,76.37
2023-05-06T02:04:07.809Z,76.78
2023-05-06T02:06:47.168Z,76.84
2023-05-06T02:09:26.517Z,76.75
2023-05-06T02:12:11.204Z,76.94
2023-05-06T02:14:50.481Z,76.59
2023-05-06T02:17:29.836Z,76.77
2023-05-06T02:20:10.777Z,76.69
2023-05-06T02:22:50.135Z,76.54
2023-05-06T02:25:30.081Z,75.91
2023-05-06T02:28:14.461Z,76.14
2023-05-06T02:30:53.892Z,76.20
2023-05-06T02:33:33.307Z,75.62
2023-05-06T02:36:13.289Z,75.11
2023-05-06T02:38:52.626Z,75.24
2023-05-06T02:41:32.330Z,75.77
2023-05-06T02:44:16.751Z,75.79
2023-05-06T02:46:55.989Z,75.96
2023-05-06T02:49:35.248Z,76.09
2023-05-06T02:52:14.486Z,75.87
2023-05-06T02:54:53.740Z,76.00
2023-05-06T02:57:32.962Z,75.94
2023-05-06T03:00:18.681Z,76.11
2023-05-06T03:02:57.938Z,75.81
2023-05-06T03:05:37.299Z,76.45
2023-05-06T03:08:16.584Z,76.47
2023-05-06T03:10:56.132Z,76.45
2023-05-06T03:13:35.378Z,76.39
2023-05-06T03:16:24.083Z,76.39
2023-05-06T03:19:04.840Z,76.41
2023-05-06T03:21:44.099Z,76.54
2023-05-06T03:24:23.347Z,76.67
2023-05-06T03:27:02.966Z,76.33
2023-05-06T03:29:42.233Z,76.68
2023-05-06T03:32:26.539Z,76.98
2023-05-06T03:35:05.832Z,77.19
2023-05-06T03:37:45.158Z,77.29
2023-05-06T03:40:24.581Z,77.39
2023-05-06T03:43:03.906Z,76.97
2023-05-06T03:45:43.336Z,76.60
2023-05-06T03:48:27.656Z,76.11
2023-05-06T03:51:06.979Z,76.85
2023-05-06T03:53:46.282Z,76.97
2023-05-06T03:56:25.490Z,77.51
2023-05-06T03:59:04.921Z,77.26
2023-05-06T04:01:44.283Z,76.60
2023-05-06T04:04:30.555Z,76.96
2023-05-06T04:07:10.216Z,77.65
2023-05-06T04:09:49.452Z,78.09
2023-05-06T04:12:28.729Z,78.00
2023-05-06T04:15:08.743Z,78.01
2023-05-06T04:17:48.302Z,78.18
2023-05-06T04:20:32.687Z,78.44
2023-05-06T04:23:11.938Z,78.73
2023-05-06T04:25:54.140Z,78.08
2023-05-06T04:28:33.556Z,77.72
2023-05-06T04:31:12.827Z,77.08
2023-05-06T04:33:54.636Z,77.24
2023-05-06T04:36:40.573Z,77.50
2023-05-06T04:39:20.133Z,77.37
2023-05-06T04:41:59.350Z,77.16
2023-05-06T04:44:38.701Z,77.28
2023-05-06T04:47:18.288Z,77.16
2023-05-06T04:49:57.591Z,77.10
2023-05-06T04:52:42.100Z,77.69
2023-05-06T04:55:21.441Z,77.12
2023-05-06T04:58:00.678Z,77.14
2023-05-06T05:00:40.250Z,77.36
2023-05-06T05:03:19.692Z,77.18
2023-05-06T05:05:59.059Z,77.10
2023-05-06T05:08:43.338Z,76.72
2023-05-06T05:11:22.723Z,77.22
2023-05-06T05:14:02.425Z,76.92
2023-05-06T05:16:42.065Z,76.97
2023-05-06T05:19:21.369Z,76.95
2023-05-06T05:22:00.654Z,76.90
2023-05-06T05:24:44.946Z,75.93
2023-05-06T05:27:24.563Z,75.76
2023-05-06T05:30:03.820Z,75.85
2023-05-06T05:32:43.223Z,76.31
2023-05-06T05:35:22.526Z,75.88
2023-05-06T05:38:02.313Z,76.38
2023-05-06T05:40:46.616Z,76.58
2023-05-06T05:43:27.259Z,76.52
2023-05-06T05:46:06.608Z,75.68
2023-05-06T05:48:46.101Z,75.95
2023-05-06T05:51:25.331Z,75.75
2023-05-06T05:54:04.565Z,75.23
2023-05-06T05:56:48.916Z,75.38
2023-05-06T05:59:28.160Z,75.76
2023-05-06T06:02:07.427Z,76.20
2023-05-06T06:04:46.760Z,75.58
2023-05-06T06:07:26.631Z,75.02
2023-05-06T06:10:05.927Z,75.39
2023-05-06T06:12:50.437Z,75.48
2023-05-06T06:15:30.519Z,75.75
2023-05-06T06:18:10.173Z,76.12
2023-05-06T06:20:51.062Z,76.40
2023-05-06T06:23:32.371Z,76.42
2023-05-06T06:26:12.328Z,76.31
2023-05-06T06:28:56.920Z,76.76
2023-05-06T06:31:38.317Z,76.44
2023-05-06T06:34:19.007Z,76.41
2023-05-06T06:36:58.542Z,76.20
2023-05-06T06:39:37.854Z,76.11
2023-05-06T06:42:17.132Z,76.42
2023-05-06T06:45:01.579Z,76.47
2023-05-06T06:47:40.824Z,76.80
2023-05-06T06:50:20.155Z,77.03
2023-05-06T06:52:59.469Z,77.11
2023-05-06T06:55:38.845Z,75.99
2023-05-06T06:58:18.278Z,76.71
2023-05-06T07:01:02.786Z,76.19
2023-05-06T07:03:42.145Z,76.59
2023-05-06T07:06:21.470Z,75.90
2023-05-06T07:09:00.848Z,75.63
2023-05-06T07:11:40.148Z,75.65
2023-05-06T07:14:20.945Z,75.78
2023-05-06T07:17:05.804Z,74.35
2023-05-06T07:19:45.074Z,74.06
2023-05-06T07:22:24.413Z,72.72
2023-05-06T07:25:03.662Z,71.26
2023-05-06T07:27:43.002Z,70.97
2023-05-06T07:30:23.389Z,71.41
2023-05-06T07:33:08.197Z,70.59
2023-05-06T07:35:47.559Z,70.97
2023-05-06T07:38:29.140Z,69.82
2023-05-06T07:41:08.389Z,69.65
2023-05-06T07:43:47.745Z,69.52
2023-05-06T07:46:27.276Z,68.21
2023-05-06T07:49:11.691Z,68.21
2023-05-06T07:51:55.524Z,67.37
2023-05-06T07:54:34.805Z,67.37
2023-05-06T07:57:14.030Z,67.39
2023-05-06T07:59:56.061Z,67.05
2023-05-06T08:02:35.398Z,65.41
2023-05-06T08:05:20.300Z,64.88
2023-05-06T08:07:59.955Z,64.21
2023-05-06T08:10:39.308Z,63.77
2023-05-06T08:13:19.076Z,63.90
2023-05-06T08:15:58.903Z,64.05
2023-05-06T08:18:38.233Z,62.38
2023-05-06T08:21:22.626Z,61.46
2023-05-06T08:24:01.885Z,61.59
2023-05-06T08:26:41.175Z,60.80
2023-05-06T08:29:20.411Z,57.48
2023-05-06T08:31:59.776Z,57.04
2023-05-06T08:34:39.067Z,57.36
2023-05-06T08:40:09.058Z,54.35
2023-05-06T08:42:52.810Z,55.45
2023-05-06T08:45:32.625Z,55.52
2023-05-06T08:48:12.391Z,54.18
2023-05-06T08:50:52.231Z,53.71
2023-05-06T08:53:37.128Z,54.08
2023-05-06T08:56:21.264Z,53.53
2023-05-06T08:59:02.546Z,53.60
2023-05-06T09:01:43.006Z,53.81
2023-05-06T09:04:25.029Z,52.42
2023-05-06T09:07:06.014Z,51.72
2023-05-06T09:09:50.382Z,51.12
2023-05-06T09:12:31.256Z,50.06
2023-05-06T09:15:11.262Z,50.03
2023-05-06T09:17:51.360Z,50.38
2023-05-06T09:20:30.778Z,49.95
2023-05-06T09:23:10.670Z,49.37
2023-05-06T09:25:56.037Z,49.05
2023-05-06T09:28:40.365Z,48.63
2023-05-06T09:31:22.070Z,46.14
2023-05-06T09:34:02.028Z,47.41
2023-05-06T09:36:41.559Z,48.08
2023-05-06T09:39:20.848Z,46.18
2023-05-06T09:42:05.285Z,46.07
2023-05-06T09:44:44.715Z,45.99
2023-05-06T09:47:24.542Z,47.65
2023-05-06T09:50:04.747Z,48.03
2023-05-06T09:52:44.859Z,47.54
2023-05-06T09:55:27.835Z,46.65
2023-05-06T09:58:14.433Z,43.92
2023-05-06T10:00:54.568Z,43.67
2023-05-06T10:03:34.988Z,43.61
2023-05-06T10:06:17.901Z,43.96
2023-05-06T10:08:58.294Z,43.70
2023-05-06T10:11:38.794Z,43.08
2023-05-06T10:14:23.914Z,41.80
2023-05-06T10:17:03.374Z,42.56
2023-05-06T10:19:46.811Z,42.47
2023-05-06T10:22:36.892Z,40.59
2023-05-06T10:25:25.077Z,39.09
2023-05-06T10:28:06.245Z,38.16
2023-05-06T10:30:53.069Z,37.96
2023-05-06T10:33:35.381Z,39.13
2023-05-06T10:36:23.008Z,37.69
2023-05-06T10:39:05.816Z,38.16
2023-05-06T10:41:45.717Z,39.37
2023-05-06T10:44:25.016Z,40.24
2023-05-06T10:47:10.341Z,39.04
2023-05-06T10:49:49.656Z,39.77
2023-05-06T10:52:28.962Z,39.80
2023-05-06T10:55:09.017Z,38.61
2023-05-06T10:57:50.466Z,39.80
2023-05-06T11:00:30.759Z,40.29
2023-05-06T11:03:19.991Z,38.48
2023-05-06T11:06:02.389Z,39.22
2023-05-06T11:08:42.040Z,39.05
2023-05-06T11:11:52.154Z,40.18
2023-05-06T11:14:36.936Z,41.30
2023-05-06T11:17:36.163Z,39.77
2023-05-06T11:20:33.670Z,39.55
2023-05-06T11:23:13.015Z,39.30
2023-05-06T11:25:53.345Z,39.04
2023-05-06T11:28:32.885Z,41.16
2023-05-06T11:31:13.491Z,37.49
2023-05-06T11:33:56.236Z,36.31
2023-05-06T11:36:42.011Z,36.33
2023-05-06T11:39:21.348Z,36.85
2023-05-06T11:42:00.784Z,36.63
2023-05-06T11:44:41.917Z,36.79
2023-05-06T11:47:21.228Z,37.21
2023-05-06T11:50:08.941Z,37.58
2023-05-06T11:52:53.645Z,38.23
2023-05-06T11:55:33.367Z,38.37
2023-05-06T11:58:12.660Z,39.02
2023-05-06T12:00:57.125Z,39.34
2023-05-06T12:03:38.638Z,37.33
2023-05-06T12:06:18.011Z,35.59
2023-05-06T12:09:02.641Z,36.06
2023-05-06T12:11:44.863Z,36.76
2023-05-06T12:14:25.315Z,35.86
2023-05-06T12:17:04.895Z,34.89
2023-05-06T12:19:45.742Z,34.65
2023-05-06T12:22:26.176Z,33.86
2023-05-06T12:25:21.226Z,34.30
2023-05-06T12:28:00.549Z,34.95
2023-05-06T12:30:40.631Z,33.57
2023-05-06T12:33:20.893Z,33.64
2023-05-06T12:36:00.641Z,33.56
2023-05-06T12:38:40.013Z,33.53
2023-05-06T12:41:24.493Z,34.20
2023-05-06T12:44:03.817Z,34.30
2023-05-06T12:46:43.071Z,34.72
2023-05-06T12:49:22.453Z,33.84
2023-05-06T12:52:15.721Z,34.30
2023-05-06T12:54:56.113Z,34.36
2023-05-06T12:57:40.486Z,34.32
2023-05-06T13:00:21.221Z,35.65
2023-05-06T13:03:00.569Z,35.58
2023-05-06T13:05:39.983Z,35.93
2023-05-06T13:08:19.252Z,35.61
2023-05-06T13:10:58.554Z,36.22
2023-05-06T13:13:43.494Z,36.38
2023-05-06T13:16:22.951Z,36.56
2023-05-06T13:19:02.379Z,37.53
2023-05-06T13:21:41.650Z,36.69
2023-05-06T13:24:21.060Z,37.04
2023-05-06T13:27:01.903Z,36.98
2023-05-06T13:29:46.477Z,36.00
2023-05-06T13:32:25.835Z,35.95
2023-05-06T13:35:06.913Z,36.65
2023-05-06T13:37:46.261Z,36.79
2023-05-06T13:40:25.860Z,35.78
2023-05-06T13:43:05.139Z,34.91
2023-05-06T13:45:50.310Z,35.27
2023-05-06T13:48:29.603Z,35.08
2023-05-06T13:51:08.989Z,36.98
2023-05-06T13:53:48.304Z,36.10
2023-05-06T13:56:27.840Z,36.39
2023-05-06T13:59:09.556Z,36.05
2023-05-06T14:01:55.301Z,35.86
2023-05-06T14:04:34.725Z,36.56
2023-05-06T14:07:14.010Z,37.11
2023-05-06T14:09:53.275Z,35.87
2023-05-06T14:12:32.528Z,34.94
2023-05-06T14:15:14.079Z,34.34
2023-05-06T14:17:58.457Z,34.12
2023-05-06T14:20:37.976Z,34.19
2023-05-06T14:23:17.301Z,33.39
2023-05-06T14:25:56.866Z,32.31
2023-05-06T14:28:36.172Z,31.99
2023-05-06T14:31:15.543Z,32.68
2023-05-06T14:34:02.748Z,33.29
2023-05-06T14:36:42.068Z,33.31
2023-05-06T14:39:21.354Z,31.76
2023-05-06T14:42:00.618Z,31.13
2023-05-06T14:44:40.088Z,32.30
2023-05-06T14:47:19.316Z,30.70
2023-05-06T14:50:03.834Z,30.95
2023-05-06T14:52:43.484Z,30.49
2023-05-06T14:55:22.764Z,32.03
2023-05-06T14:58:02.249Z,31.94
2023-05-06T15:00:41.662Z,31.15
2023-05-06T15:03:20.989Z,31.35
2023-05-06T15:06:05.478Z,31.50
2023-05-06T15:08:44.784Z,30.85
2023-05-06T15:11:24.214Z,30.82
2023-05-06T15:14:03.441Z,31.25
2023-05-06T15:16:42.821Z,32.05
2023-05-06T15:19:22.096Z,33.20
2023-05-06T15:22:08.689Z,33.68
2023-05-06T15:24:47.981Z,33.64
2023-05-06T15:27:27.265Z,32.96
2023-05-06T15:30:07.465Z,33.31
2023-05-06T15:32:46.712Z,32.98
2023-05-06T15:35:26.070Z,32.96
2023-05-06T15:38:11.636Z,33.12
2023-05-06T15:40:57.798Z,32.94
2023-05-06T15:43:38.821Z,32.89
2023-05-06T15:46:18.946Z,32.40
2023-05-06T15:49:21.159Z,32.22
2023-05-06T15:52:00.857Z,32.37
2023-05-06T15:54:49.671Z,32.68
2023-05-06T15:57:30.135Z,32.46
2023-05-06T16:00:09.848Z,32.66
2023-05-06T16:02:49.436Z,32.57
2023-05-06T16:05:28.879Z,32.59
2023-05-06T16:08:08.352Z,32.56
2023-05-06T16:10:52.722Z,31.78
2023-05-06T16:13:32.027Z,31.77
2023-05-06T16:16:12.044Z,32.93
2023-05-06T16:18:51.395Z,33.52
2023-05-06T16:21:30.730Z,33.27
2023-05-06T16:24:10.050Z,33.03
2023-05-06T16:26:54.368Z,33.92
2023-05-06T16:29:33.633Z,34.67
2023-05-06T16:32:12.972Z,35.11
2023-05-06T16:34:52.257Z,35.56
2023-05-06T16:37:31.569Z,36.15
2023-05-06T16:40:11.898Z,36.53
2023-05-06T16:42:56.672Z,37.15
2023-05-06T16:45:38.747Z,37.40
2023-05-06T16:48:18.587Z,37.73
2023-05-06T16:50:58.211Z,39.70
2023-05-06T16:53:37.471Z,39.90
2023-05-06T16:56:16.878Z,38.42
2023-05-06T16:59:01.301Z,39.18
2023-05-06T17:01:40.560Z,40.43
2023-05-06T17:04:19.791Z,42.03
2023-05-06T17:06:59.831Z,41.73
2023-05-06T17:09:39.059Z,43.38
2023-05-06T17:12:18.386Z,43.65
2023-05-06T17:15:02.703Z,44.11
2023-05-06T17:17:42.132Z,44.34
2023-05-06T17:20:21.572Z,45.11
2023-05-06T17:23:00.815Z,47.51
2023-05-06T17:25:40.033Z,48.80
2023-05-06T17:28:19.357Z,48.20
2023-05-06T17:31:03.731Z,48.52
2023-05-06T17:33:43.039Z,48.79
2023-05-06T17:36:23.058Z,48.75
2023-05-06T17:39:09.520Z,48.34
2023-05-06T17:41:48.790Z,48.10
2023-05-06T17:44:28.070Z,48.87
2023-05-06T17:47:12.479Z,47.67
2023-05-06T17:49:51.844Z,46.19
2023-05-06T17:52:32.413Z,46.34
2023-05-06T17:55:17.457Z,47.23
2023-05-06T17:57:57.045Z,47.89
2023-05-06T18:00:36.364Z,47.92
2023-05-06T18:03:21.223Z,48.31
2023-05-06T18:06:01.121Z,48.74
2023-05-06T18:08:45.871Z,47.63
2023-05-06T18:11:25.504Z,48.77
2023-05-06T18:14:04.976Z,48.55
2023-05-06T18:16:44.410Z,49.61
2023-05-06T18:19:28.784Z,50.14
2023-05-06T18:22:08.260Z,49.29
2023-05-06T18:24:47.580Z,50.24
2023-05-06T18:27:28.552Z,50.97
2023-05-06T18:30:07.804Z,50.85
2023-05-06T18:32:49.366Z,50.41
2023-05-06T18:35:35.129Z,52.23
2023-05-06T18:38:14.775Z,52.82
2023-05-06T18:40:54.515Z,52.66
2023-05-06T18:43:33.810Z,52.85
2023-05-06T18:46:13.294Z,52.30
2023-05-06T18:48:57.497Z,52.71
2023-05-06T18:51:41.888Z,51.61
2023-05-06T18:54:21.107Z,52.58
2023-05-06T18:57:00.432Z,52.73
2023-05-06T18:59:40.038Z,51.46
2023-05-06T19:02:19.279Z,52.12
2023-05-06T19:04:59.442Z,52.46
2023-05-06T19:07:43.768Z,52.61
2023-05-06T19:10:23.032Z,52.01
2023-05-06T19:13:02.410Z,52.84
2023-05-06T19:15:41.658Z,53.09
2023-05-06T19:18:20.905Z,53.73
2023-05-06T19:21:00.181Z,53.09
2023-05-06T19:23:44.667Z,53.81
2023-05-06T19:26:23.927Z,54.05
2023-05-06T19:29:03.285Z,53.91
2023-05-06T19:31:42.573Z,53.85
2023-05-06T19:34:22.122Z,54.11
2023-05-06T19:37:01.670Z,54.58
2023-05-06T19:39:47.578Z,54.78
2023-05-06T19:42:26.801Z,54.37
2023-05-06T19:45:06.111Z,55.14
2023-05-06T19:47:45.983Z,55.08
2023-05-06T19:50:25.455Z,55.00
2023-05-06T19:53:04.924Z,55.75
2023-05-06T19:55:49.217Z,55.82
2023-05-06T19:58:28.474Z,55.59
2023-05-06T20:01:07.770Z,55.91
2023-05-06T20:03:47.507Z,55.77
2023-05-06T20:06:26.866Z,56.07
2023-05-06T20:09:06.146Z,56.84
2023-05-06T20:11:50.442Z,57.09
2023-05-06T20:14:29.862Z,56.82
2023-05-06T20:17:09.539Z,57.33
2023-05-06T20:19:49.137Z,57.88
2023-05-06T20:22:28.385Z,58.24
2023-05-06T20:25:17.140Z,59.24
2023-05-06T20:28:01.653Z,59.70
2023-05-06T20:30:41.245Z,59.55
2023-05-06T20:33:20.530Z,60.19
2023-05-06T20:35:59.792Z,59.96
2023-05-06T20:38:39.025Z,59.76
2023-05-06T20:41:18.287Z,60.27
2023-05-06T20:44:03.688Z,60.37
2023-05-06T20:46:42.916Z,60.07
2023-05-06T20:49:22.220Z,60.01
2023-05-06T20:52:02.342Z,60.47
2023-05-06T20:54:41.713Z,60.07
2023-05-06T20:57:22.585Z,60.11
2023-05-06T21:00:10.670Z,60.88
2023-05-06T21:02:50.410Z,60.95
2023-05-06T21:05:30.054Z,61.21
2023-05-06T21:08:09.914Z,61.52
2023-05-06T21:10:49.160Z,61.61
2023-05-06T21:13:28.744Z,61.97
2023-05-06T21:16:13.233Z,61.65
2023-05-06T21:18:52.586Z,61.42
2023-05-06T21:21:32.026Z,61.29
2023-05-06T21:24:11.950Z,61.72
2023-05-06T21:26:52.406Z,62.53
2023-05-06T21:29:31.643Z,61.89
2023-05-06T21:32:16.220Z,62.09
2023-05-06T21:34:55.512Z,62.55
2023-05-06T21:37:36.812Z,62.95
2023-05-06T21:40:17.729Z,62.81
2023-05-06T21:42:57.436Z,62.96
2023-05-06T21:45:36.658Z,63.14
2023-05-06T21:48:21.090Z,63.34
2023-05-06T21:51:01.529Z,63.17
2023-05-06T21:53:40.765Z,63.28
2023-05-06T21:56:19.986Z,63.40
2023-05-06T21:59:00.930Z,63.70
2023-05-06T22:01:40.522Z,63.48
2023-05-06T22:04:24.861Z,63.71
2023-05-06T22:07:04.234Z,64.10
2023-05-06T22:09:43.471Z,64.12
2023-05-06T22:12:23.029Z,64.70
2023-05-06T22:15:02.315Z,64.53
2023-05-06T22:17:41.726Z,64.90
2023-05-06T22:20:26.208Z,64.93
2023-05-06T22:23:05.494Z,64.92
2023-05-06T22:25:44.753Z,64.96
2023-05-06T22:28:24.112Z,65.01
2023-05-06T22:31:03.429Z,65.32
2023-05-06T22:33:42.660Z,65.46
2023-05-06T22:36:28.020Z,65.63
2023-05-06T22:39:07.877Z,65.66
2023-05-06T22:41:47.200Z,65.75
2023-05-06T22:44:26.473Z,65.75
2023-05-06T22:47:05.704Z,65.81
2023-05-06T22:49:45.577Z,66.11
2023-05-06T22:52:30.397Z,66.37
2023-05-06T22:55:11.099Z,66.18
2023-05-06T22:57:51.204Z,66.16
2023-05-06T23:00:30.566Z,66.05
2023-05-06T23:03:09.909Z,66.08
2023-05-06T23:05:49.152Z,66.21
2023-05-06T23:08:33.458Z,66.35
2023-05-06T23:11:12.746Z,66.00
2023-05-06T23:13:52.077Z,66.37
2023-05-06T23:16:31.378Z,66.60
2023-05-06T23:19:10.702Z,66.56
2023-05-06T23:21:50.017Z,66.63
2023-05-06T23:24:34.329Z,66.28
2023-05-06T23:27:13.624Z,66.45
2023-05-06T23:29:53.015Z,66.44
2023-05-06T23:32:32.299Z,66.57
2023-05-06T23:35:12.847Z,66.62
2023-05-06T23:37:52.356Z,66.74
2023-05-06T23:40:36.674Z,66.70
2023-05-06T23:43:16.078Z,66.64
2023-05-06T23:45:55.331Z,66.98
2023-05-06T23:48:34.594Z,66.92
2023-05-06T23:51:13.866Z,66.94
2023-05-06T23:53:53.361Z,67.38
2023-05-06T23:56:37.719Z,67.37
2023-05-06T23:59:17.799Z,67.34
